createdAt,value
2022-08-28T00:02:31.866Z,100639.38
2022-08-28T00:07:35.664Z,100646.13
2022-08-28T00:12:38.808Z,100642.66
2022-08-28T00:17:42.539Z,100629.97
2022-08-28T00:22:45.746Z,100645.38
2022-08-28T00:27:55.154Z,100656.97
2022-08-28T00:33:01.200Z,100655.53
2022-08-28T00:38:05.868Z,100641.03
2022-08-28T00:43:09.893Z,100652.03
2022-08-28T00:48:12.830Z,100661.94
2022-08-28T00:53:15.709Z,100661.13
2022-08-28T00:58:19.002Z,100635.03
2022-08-28T01:03:25.213Z,100643.50
2022-08-28T01:08:31.700Z,100633.31
2022-08-28T01:13:35.194Z,100631.50
2022-08-28T01:18:38.167Z,100633.13
2022-08-28T01:23:51.958Z,100633.22
2022-08-28T01:28:55.734Z,100625.72
2022-08-28T01:34:01.610Z,100615.69
2022-08-28T01:39:22.759Z,100639.50
2022-08-28T01:44:27.108Z,100649.47
2022-08-28T01:49:29.930Z,100655.03
2022-08-28T01:54:32.848Z,100646.44
2022-08-28T01:59:36.676Z,100607.94
2022-08-28T02:04:39.848Z,100651.44
2022-08-28T02:09:43.002Z,100666.44
2022-08-28T02:14:45.974Z,100660.28
2022-08-28T02:19:48.768Z,100657.78
2022-08-28T02:24:51.577Z,100664.41
2022-08-28T02:29:55.977Z,100658.59
2022-08-28T02:34:58.816Z,100648.34
2022-08-28T02:40:01.685Z,100656.53
2022-08-28T02:45:06.840Z,100658.97
2022-08-28T02:50:11.459Z,100663.22
2022-08-28T02:55:17.826Z,100656.56
2022-08-28T03:00:23.686Z,100657.19
2022-08-28T03:05:27.260Z,100657.03
2022-08-28T03:10:30.001Z,100651.81
2022-08-28T03:15:32.709Z,100650.56
2022-08-28T03:20:35.602Z,100655.50
2022-08-28T03:25:38.701Z,100643.22
2022-08-28T03:30:41.446Z,100634.19
2022-08-28T03:35:44.291Z,100648.72
2022-08-28T03:40:47.585Z,100629.34
2022-08-28T03:46:03.008Z,100638.44
2022-08-28T03:51:10.998Z,100637.59
2022-08-28T03:56:16.846Z,100654.88
2022-08-28T04:01:20.770Z,100636.91
2022-08-28T04:06:23.611Z,100639.16
2022-08-28T04:11:26.518Z,100640.00
2022-08-28T04:16:29.445Z,100648.56
2022-08-28T04:21:32.237Z,100646.97
2022-08-28T04:26:37.088Z,100645.84
2022-08-28T04:31:39.981Z,100652.41
2022-08-28T04:36:42.782Z,100649.41
2022-08-28T04:41:45.515Z,100648.94
2022-08-28T04:46:48.454Z,100639.84
2022-08-28T04:51:51.675Z,100641.72
2022-08-28T04:56:54.713Z,100636.72
2022-08-28T05:01:57.525Z,100622.25
2022-08-28T05:07:00.587Z,100633.84
2022-08-28T05:12:05.943Z,100626.53
2022-08-28T05:17:09.799Z,100631.91
2022-08-28T05:22:12.492Z,100622.03
2022-08-28T05:27:15.273Z,100621.34
2022-08-28T05:32:18.135Z,100609.75
2022-08-28T05:37:21.025Z,100599.56
2022-08-28T05:42:23.749Z,100602.63
2022-08-28T05:47:33.389Z,100599.03
2022-08-28T05:52:36.431Z,100577.34
2022-08-28T05:57:40.455Z,100582.81
2022-08-28T06:02:44.806Z,100573.41
2022-08-28T06:07:47.632Z,100562.34
2022-08-28T06:12:50.925Z,100554.13
2022-08-28T06:17:54.108Z,100551.03
2022-08-28T06:22:56.855Z,100546.91
2022-08-28T06:27:59.631Z,100535.81
2022-08-28T06:33:02.417Z,100535.81
2022-08-28T06:38:05.236Z,100529.81
2022-08-28T06:43:08.400Z,100531.50
2022-08-28T06:48:12.591Z,100530.63
2022-08-28T06:53:18.053Z,100530.59
2022-08-28T06:58:20.858Z,100529.78
2022-08-28T07:03:23.591Z,100550.41
2022-08-28T07:08:28.127Z,100541.84
2022-08-28T07:13:33.784Z,100552.16
2022-08-28T07:18:37.407Z,100537.50
2022-08-28T07:23:42.491Z,100561.63
2022-08-28T07:28:46.022Z,100559.03
2022-08-28T07:33:52.793Z,100550.44
2022-08-28T07:38:58.379Z,100545.22
2022-08-28T07:44:19.511Z,100570.22
2022-08-28T07:49:22.673Z,100577.00
2022-08-28T07:54:25.525Z,100582.22
2022-08-28T07:59:34.185Z,100553.84
2022-08-28T08:04:40.679Z,100560.56
2022-08-28T08:09:43.982Z,100557.97
2022-08-28T08:14:46.814Z,100551.97
2022-08-28T08:19:49.887Z,100544.69
2022-08-28T08:24:54.844Z,100499.69
2022-08-28T08:29:57.556Z,100527.44
2022-08-28T08:35:00.347Z,100540.84
2022-08-28T08:40:05.497Z,100533.66
2022-08-28T08:45:13.585Z,100531.94
2022-08-28T08:50:31.189Z,100538.44
2022-08-28T08:55:39.582Z,100537.81
2022-08-28T09:01:24.348Z,100539.72
2022-08-28T09:06:29.988Z,100544.28
2022-08-28T09:11:35.464Z,100535.75
2022-08-28T09:16:41.914Z,100531.53
2022-08-28T09:21:46.819Z,100538.66
2022-08-28T09:27:14.521Z,100539.69
2022-08-28T09:32:24.089Z,100533.84
2022-08-28T09:37:28.205Z,100535.69
2022-08-28T09:42:49.574Z,100542.63
2022-08-28T09:47:56.178Z,100535.69
2022-08-28T09:53:10.109Z,100531.19
2022-08-28T09:58:13.977Z,100523.34
2022-08-28T10:03:22.601Z,100517.16
2022-08-28T10:08:55.267Z,100516.38
2022-08-28T10:14:03.608Z,100523.44
2022-08-28T10:19:19.064Z,100519.22
2022-08-28T10:24:31.807Z,100524.47
2022-08-28T10:29:48.595Z,100518.59
2022-08-28T10:35:15.887Z,100518.59
2022-08-28T10:40:25.242Z,100520.28
2022-08-28T10:45:30.829Z,100506.50
2022-08-28T10:50:39.680Z,100518.50
2022-08-28T10:56:03.276Z,100506.44
2022-08-28T11:01:09.432Z,100506.44
2022-08-28T11:06:30.202Z,100485.00
2022-08-28T11:11:44.917Z,100507.38
2022-08-28T11:16:47.998Z,100497.06
2022-08-28T11:21:55.412Z,100506.53
2022-08-28T11:27:21.889Z,100509.13
2022-08-28T11:32:50.785Z,100508.25
2022-08-28T11:37:55.300Z,100515.13
2022-08-28T11:43:30.688Z,100508.25
2022-08-28T11:48:36.585Z,100515.97
2022-08-28T11:54:05.132Z,100515.13
2022-08-28T11:59:10.949Z,100531.44
2022-08-28T12:04:19.656Z,100528.81
2022-08-28T12:09:50.438Z,100541.69
2022-08-28T12:14:56.210Z,100539.88
2022-08-28T12:20:12.018Z,100544.84
2022-08-28T12:25:27.247Z,100546.47
2022-08-28T12:30:39.777Z,100548.06
2022-08-28T12:35:43.937Z,100554.97
2022-08-28T12:40:53.809Z,100538.50
2022-08-28T12:46:30.202Z,100550.44
2022-08-28T12:51:35.603Z,100537.44
2022-08-28T12:56:39.308Z,100529.53
2022-08-28T13:01:43.006Z,100538.81
2022-08-28T13:06:45.971Z,100542.16
2022-08-28T13:11:51.779Z,100519.63
2022-08-28T13:16:55.351Z,100536.13
2022-08-28T13:22:09.776Z,100557.63
2022-08-28T13:27:12.536Z,100559.34
2022-08-28T13:32:19.237Z,100556.69
2022-08-28T13:37:48.781Z,100566.19
2022-08-28T13:42:54.195Z,100571.34
2022-08-28T13:47:56.730Z,100562.03
2022-08-28T13:52:59.470Z,100559.47
2022-08-28T13:58:02.299Z,100564.72
2022-08-28T14:03:23.780Z,100556.09
2022-08-28T14:08:26.707Z,100556.16
2022-08-28T14:13:29.642Z,100542.47
2022-08-28T14:18:32.594Z,100542.53
2022-08-28T14:23:35.452Z,100536.53
2022-08-28T14:28:38.772Z,100533.91
2022-08-28T14:33:42.565Z,100527.88
2022-08-28T14:38:50.937Z,100538.22
2022-08-28T14:43:57.066Z,100536.53
2022-08-28T14:49:02.363Z,100538.28
2022-08-28T14:54:06.397Z,100536.56
2022-08-28T14:59:16.005Z,100521.00
2022-08-28T15:04:23.102Z,100528.75
2022-08-28T15:09:26.378Z,100540.72
2022-08-28T15:14:29.112Z,100538.97
2022-08-28T15:19:31.927Z,100535.53
2022-08-28T15:24:34.896Z,100535.47
2022-08-28T15:29:37.705Z,100536.31
2022-08-28T15:34:41.175Z,100525.19
2022-08-28T15:40:02.490Z,100536.31
2022-08-28T15:45:06.383Z,100514.91
2022-08-28T15:50:11.428Z,100518.44
2022-08-28T15:55:14.437Z,100516.78
2022-08-28T16:00:17.507Z,100510.84
2022-08-28T16:05:20.349Z,100506.59
2022-08-28T16:10:23.251Z,100506.63
2022-08-28T16:15:25.955Z,100500.63
2022-08-28T16:20:28.661Z,100498.88
2022-08-28T16:25:31.680Z,100500.59
2022-08-28T16:30:37.920Z,100487.69
2022-08-28T16:35:48.259Z,100498.88
2022-08-28T16:40:54.289Z,100496.34
2022-08-28T16:45:57.314Z,100461.06
2022-08-28T16:51:00.115Z,100477.47
2022-08-28T16:56:04.012Z,100466.31
2022-08-28T17:01:08.668Z,100468.03
2022-08-28T17:06:17.596Z,100461.16
2022-08-28T17:11:21.016Z,100460.28
2022-08-28T17:16:24.910Z,100461.19
2022-08-28T17:21:46.582Z,100463.75
2022-08-28T17:26:49.288Z,100454.28
2022-08-28T17:31:52.423Z,100444.81
2022-08-28T17:36:55.300Z,100443.06
2022-08-28T17:41:58.162Z,100429.97
2022-08-28T17:47:01.299Z,100422.97
2022-08-28T17:52:04.995Z,100414.31
2022-08-28T17:57:07.924Z,100403.94
2022-08-28T18:02:11.217Z,100415.09
2022-08-28T18:07:14.012Z,100413.31
2022-08-28T18:12:16.951Z,100407.25
2022-08-28T18:17:19.890Z,100408.16
2022-08-28T18:22:26.460Z,100397.88
2022-08-28T18:27:32.819Z,100400.41
2022-08-28T18:32:35.629Z,100390.19
2022-08-28T18:37:38.550Z,100394.63
2022-08-28T18:42:41.380Z,100387.75
2022-08-28T18:47:44.262Z,100391.09
2022-08-28T18:52:47.022Z,100383.34
2022-08-28T18:57:49.984Z,100373.03
2022-08-28T19:02:55.059Z,100367.00
2022-08-28T19:07:58.841Z,100366.94
2022-08-28T19:13:03.974Z,100363.47
2022-08-28T19:18:07.384Z,100375.50
2022-08-28T19:23:13.248Z,100354.13
2022-08-28T19:28:19.690Z,100361.88
2022-08-28T19:33:22.626Z,100364.38
2022-08-28T19:38:25.446Z,100330.78
2022-08-28T19:43:44.391Z,100354.81
2022-08-28T19:48:49.412Z,100351.34
2022-08-28T19:53:58.008Z,100343.63
2022-08-28T19:59:03.065Z,100334.19
2022-08-28T20:04:08.045Z,100336.75
2022-08-28T20:09:13.128Z,100334.22
2022-08-28T20:14:17.610Z,100325.78
2022-08-28T20:19:21.195Z,100337.03
2022-08-28T20:24:24.578Z,100328.50
2022-08-28T20:29:27.436Z,100324.22
2022-08-28T20:34:30.145Z,100317.09
2022-08-28T20:39:33.062Z,100325.34
2022-08-28T20:44:36.246Z,100317.44
2022-08-28T20:49:39.378Z,100332.59
2022-08-28T20:54:42.440Z,100317.88
2022-08-28T20:59:46.106Z,100320.22
2022-08-28T21:04:49.596Z,100320.06
2022-08-28T21:10:04.311Z,100318.28
2022-08-28T21:15:09.691Z,100315.63
2022-08-28T21:20:14.431Z,100297.34
2022-08-28T21:25:17.704Z,100303.34
2022-08-28T21:30:21.808Z,100308.28
2022-08-28T21:35:25.058Z,100292.63
2022-08-28T21:40:27.877Z,100297.66
2022-08-28T21:45:30.757Z,100295.03
2022-08-28T21:50:34.106Z,100293.28
2022-08-28T21:55:36.907Z,100294.16
2022-08-28T22:00:41.191Z,100288.09
2022-08-28T22:05:45.013Z,100270.91
2022-08-28T22:10:48.173Z,100277.25
2022-08-28T22:15:51.181Z,100289.56
2022-08-28T22:21:12.517Z,100269.28
2022-08-28T22:26:19.192Z,100272.75
2022-08-28T22:31:22.353Z,100269.25
2022-08-28T22:36:25.119Z,100260.69
2022-08-28T22:41:32.819Z,100250.44
2022-08-28T22:46:36.258Z,100243.56
2022-08-28T22:51:39.311Z,100255.56
2022-08-28T22:56:42.578Z,100253.03
2022-08-28T23:01:45.696Z,100237.75
2022-08-28T23:06:48.532Z,100242.97
2022-08-28T23:11:51.737Z,100232.69
2022-08-28T23:16:56.381Z,100227.38
2022-08-28T23:22:00.219Z,100225.41
2022-08-28T23:27:32.129Z,100190.78
2022-08-28T23:32:25.995Z,100205.13
2022-08-28T23:37:29.092Z,100220.56
2022-08-28T23:42:34.006Z,100215.50
2022-08-28T23:47:40.356Z,100205.53
2022-08-28T23:52:44.270Z,100194.72
2022-08-28T23:57:47.071Z,100184.44
